sensor_id;sensor_type;location;lat;lon;timestamp;temperature;humidity
17405;DHT22;8820;54.604;18.226;2023-03-01T00:01:28;15.00;41.70
17405;DHT22;8820;54.604;18.226;2023-03-01T00:03:58;10.70;48.80
17405;DHT22;8820;54.604;18.226;2023-03-01T00:06:28;8.00;54.80
17405;DHT22;8820;54.604;18.226;2023-03-01T00:08:57;6.20;61.60
17405;DHT22;8820;54.604;18.226;2023-03-01T00:11:27;5.40;73.10
17405;DHT22;8820;54.604;18.226;2023-03-01T00:14:00;4.80;88.40
17405;DHT22;8820;54.604;18.226;2023-03-01T00:16:30;4.40;94.70
17405;DHT22;8820;54.604;18.226;2023-03-01T00:19:01;4.10;98.30
17405;DHT22;8820;54.604;18.226;2023-03-01T00:21:30;3.90;99.90
17405;DHT22;8820;54.604;18.226;2023-03-01T00:23:59;3.70;99.90
17405;DHT22;8820;54.604;18.226;2023-03-01T00:26:28;3.50;99.90
17405;DHT22;8820;54.604;18.226;2023-03-01T00:28:59;3.30;99.90
17405;DHT22;8820;54.604;18.226;2023-03-01T00:31:30;3.20;99.90
17405;DHT22;8820;54.604;18.226;2023-03-01T00:34:01;3.20;99.90
17405;DHT22;8820;54.604;18.226;2023-03-01T00:36:32;3.10;99.90
17405;DHT22;8820;54.604;18.226;2023-03-01T00:39:03;3.10;99.90
17405;DHT22;8820;54.604;18.226;2023-03-01T00:41:32;3.10;99.90
17405;DHT22;8820;54.604;18.226;2023-03-01T00:44:04;3.00;99.90
17405;DHT22;8820;54.604;18.226;2023-03-01T00:46:35;3.00;99.90
17405;DHT22;8820;54.604;18.226;2023-03-01T00:49:04;3.10;99.90
17405;DHT22;8820;54.604;18.226;2023-03-01T00:51:33;3.10;99.90
17405;DHT22;8820;54.604;18.226;2023-03-01T00:54:03;3.10;99.90
17405;DHT22;8820;54.604;18.226;2023-03-01T00:56:32;3.10;99.90
17405;DHT22;8820;54.604;18.226;2023-03-01T00:59:03;3.10;99.90
17405;DHT22;8820;54.604;18.226;2023-03-01T01:01:32;3.10;99.90
17405;DHT22;8820;54.604;18.226;2023-03-01T01:04:03;3.10;99.90
17405;DHT22;8820;54.604;18.226;2023-03-01T01:06:34;3.10;99.90
17405;DHT22;8820;54.604;18.226;2023-03-01T01:09:04;3.10;99.90
17405;DHT22;8820;54.604;18.226;2023-03-01T01:11:34;3.20;99.90
17405;DHT22;8820;54.604;18.226;2023-03-01T01:14:05;3.20;99.90
17405;DHT22;8820;54.604;18.226;2023-03-01T01:16:34;3.20;99.90
17405;DHT22;8820;54.604;18.226;2023-03-01T01:19:03;3.20;99.90
17405;DHT22;8820;54.604;18.226;2023-03-01T01:21:32;3.30;99.90
17405;DHT22;8820;54.604;18.226;2023-03-01T01:24:03;3.30;99.90
17405;DHT22;8820;54.604;18.226;2023-03-01T01:26:33;3.30;99.90
17405;DHT22;8820;54.604;18.226;2023-03-01T01:29:03;3.40;99.90
17405;DHT22;8820;54.604;18.226;2023-03-01T01:31:36;3.40;99.90
17405;DHT22;8820;54.604;18.226;2023-03-01T01:34:08;3.40;99.90
17405;DHT22;8820;54.604;18.226;2023-03-01T01:36:38;3.40;99.90
17405;DHT22;8820;54.604;18.226;2023-03-01T01:39:07;3.40;99.90
17405;DHT22;8820;54.604;18.226;2023-03-01T01:41:41;3.40;99.90
17405;DHT22;8820;54.604;18.226;2023-03-01T01:44:13;3.50;99.90
17405;DHT22;8820;54.604;18.226;2023-03-01T01:46:47;3.50;99.90
17405;DHT22;8820;54.604;18.226;2023-03-01T01:49:31;3.50;99.90
17405;DHT22;8820;54.604;18.226;2023-03-01T01:52:05;3.50;99.90
17405;DHT22;8820;54.604;18.226;2023-03-01T01:54:40;3.50;99.90
17405;DHT22;8820;54.604;18.226;2023-03-01T01:57:13;3.50;99.90
17405;DHT22;8820;54.604;18.226;2023-03-01T01:59:47;3.60;99.90
17405;DHT22;8820;54.604;18.226;2023-03-01T02:02:20;3.50;99.90
17405;DHT22;8820;54.604;18.226;2023-03-01T02:04:52;3.50;99.90
17405;DHT22;8820;54.604;18.226;2023-03-01T02:07:24;3.50;99.90
17405;DHT22;8820;54.604;18.226;2023-03-01T02:09:53;3.40;99.90
17405;DHT22;8820;54.604;18.226;2023-03-01T02:12:23;3.50;99.90
17405;DHT22;8820;54.604;18.226;2023-03-01T02:14:53;3.50;99.90
17405;DHT22;8820;54.604;18.226;2023-03-01T02:17:23;3.60;99.90
17405;DHT22;8820;54.604;18.226;2023-03-01T02:20:02;3.70;99.90
17405;DHT22;8820;54.604;18.226;2023-03-01T02:22:36;3.60;99.90
17405;DHT22;8820;54.604;18.226;2023-03-01T02:25:20;3.70;99.90
17405;DHT22;8820;54.604;18.226;2023-03-01T02:27:53;3.70;99.90
17405;DHT22;8820;54.604;18.226;2023-03-01T02:30:26;3.70;99.90
17405;DHT22;8820;54.604;18.226;2023-03-01T02:32:56;3.60;99.90
17405;DHT22;8820;54.604;18.226;2023-03-01T02:35:32;3.60;99.90
17405;DHT22;8820;54.604;18.226;2023-03-01T02:38:03;3.70;99.90
17405;DHT22;8820;54.604;18.226;2023-03-01T02:40:36;3.70;99.90
17405;DHT22;8820;54.604;18.226;2023-03-01T02:43:08;3.70;99.90
17405;DHT22;8820;54.604;18.226;2023-03-01T02:45:48;3.70;99.90
17405;DHT22;8820;54.604;18.226;2023-03-01T02:48:17;3.70;99.90
17405;DHT22;8820;54.604;18.226;2023-03-01T02:51:00;3.70;99.90
17405;DHT22;8820;54.604;18.226;2023-03-01T02:53:39;3.60;99.90
17405;DHT22;8820;54.604;18.226;2023-03-01T02:56:10;3.60;99.90
17405;DHT22;8820;54.604;18.226;2023-03-01T02:58:41;3.70;99.90
17405;DHT22;8820;54.604;18.226;2023-03-01T03:01:15;3.80;99.90
17405;DHT22;8820;54.604;18.226;2023-03-01T03:03:44;3.80;99.90
17405;DHT22;8820;54.604;18.226;2023-03-01T03:06:13;3.80;99.90
17405;DHT22;8820;54.604;18.226;2023-03-01T03:08:42;3.70;99.90
17405;DHT22;8820;54.604;18.226;2023-03-01T03:11:11;3.70;99.90
17405;DHT22;8820;54.604;18.226;2023-03-01T03:13:40;3.70;99.90
17405;DHT22;8820;54.604;18.226;2023-03-01T03:16:17;3.70;99.90
17405;DHT22;8820;54.604;18.226;2023-03-01T03:18:47;3.70;99.90
17405;DHT22;8820;54.604;18.226;2023-03-01T03:21:16;3.70;99.90
17405;DHT22;8820;54.604;18.226;2023-03-01T03:23:45;3.60;99.90
17405;DHT22;8820;54.604;18.226;2023-03-01T03:26:14;3.60;99.90
17405;DHT22;8820;54.604;18.226;2023-03-01T03:28:43;3.70;99.90
17405;DHT22;8820;54.604;18.226;2023-03-01T03:31:12;3.70;99.90
17405;DHT22;8820;54.604;18.226;2023-03-01T03:33:42;3.60;99.90
17405;DHT22;8820;54.604;18.226;2023-03-01T03:36:15;3.60;99.90
17405;DHT22;8820;54.604;18.226;2023-03-01T03:38:45;3.60;99.90
17405;DHT22;8820;54.604;18.226;2023-03-01T03:41:15;3.70;99.90
17405;DHT22;8820;54.604;18.226;2023-03-01T03:43:44;3.60;99.90
17405;DHT22;8820;54.604;18.226;2023-03-01T03:46:13;3.50;99.90
17405;DHT22;8820;54.604;18.226;2023-03-01T03:48:45;3.50;99.90
17405;DHT22;8820;54.604;18.226;2023-03-01T03:51:16;3.60;99.90
17405;DHT22;8820;54.604;18.226;2023-03-01T03:53:45;3.50;99.90
17405;DHT22;8820;54.604;18.226;2023-03-01T03:56:14;3.60;99.90
17405;DHT22;8820;54.604;18.226;2023-03-01T03:58:43;3.70;99.90
17405;DHT22;8820;54.604;18.226;2023-03-01T04:01:12;3.70;99.90
17405;DHT22;8820;54.604;18.226;2023-03-01T04:03:42;3.50;99.90
17405;DHT22;8820;54.604;18.226;2023-03-01T04:06:14;3.60;99.90
17405;DHT22;8820;54.604;18.226;2023-03-01T04:08:43;3.60;99.90
17405;DHT22;8820;54.604;18.226;2023-03-01T04:11:12;3.70;99.90
17405;DHT22;8820;54.604;18.226;2023-03-01T04:13:57;3.70;99.90
17405;DHT22;8820;54.604;18.226;2023-03-01T04:16:27;3.60;99.90
17405;DHT22;8820;54.604;18.226;2023-03-01T04:18:58;3.60;99.90
17405;DHT22;8820;54.604;18.226;2023-03-01T04:21:27;3.60;99.90
17405;DHT22;8820;54.604;18.226;2023-03-01T04:23:56;3.60;99.90
17405;DHT22;8820;54.604;18.226;2023-03-01T04:26:25;3.70;99.90
17405;DHT22;8820;54.604;18.226;2023-03-01T04:28:55;3.70;99.90
17405;DHT22;8820;54.604;18.226;2023-03-01T04:31:24;3.70;99.90
17405;DHT22;8820;54.604;18.226;2023-03-01T04:33:54;3.60;99.90
17405;DHT22;8820;54.604;18.226;2023-03-01T04:36:27;3.60;99.90
17405;DHT22;8820;54.604;18.226;2023-03-01T04:38:57;3.70;99.90
17405;DHT22;8820;54.604;18.226;2023-03-01T04:41:26;3.70;99.90
17405;DHT22;8820;54.604;18.226;2023-03-01T04:43:55;3.60;99.90
17405;DHT22;8820;54.604;18.226;2023-03-01T04:46:24;3.70;99.90
17405;DHT22;8820;54.604;18.226;2023-03-01T04:48:53;3.70;99.90
17405;DHT22;8820;54.604;18.226;2023-03-01T04:51:22;3.70;99.90
17405;DHT22;8820;54.604;18.226;2023-03-01T04:53:52;3.80;99.90
17405;DHT22;8820;54.604;18.226;2023-03-01T04:56:23;3.80;99.90
17405;DHT22;8820;54.604;18.226;2023-03-01T04:58:53;3.80;99.90
17405;DHT22;8820;54.604;18.226;2023-03-01T05:01:22;3.80;99.90
17405;DHT22;8820;54.604;18.226;2023-03-01T05:03:51;3.70;99.90
17405;DHT22;8820;54.604;18.226;2023-03-01T05:06:21;3.70;99.90
17405;DHT22;8820;54.604;18.226;2023-03-01T05:08:50;3.60;99.90
17405;DHT22;8820;54.604;18.226;2023-03-01T05:11:20;3.70;99.90
17405;DHT22;8820;54.604;18.226;2023-03-01T05:13:49;3.60;99.90
17405;DHT22;8820;54.604;18.226;2023-03-01T05:16:22;3.60;99.90
17405;DHT22;8820;54.604;18.226;2023-03-01T05:18:51;3.60;99.90
17405;DHT22;8820;54.604;18.226;2023-03-01T05:21:21;3.50;99.90
17405;DHT22;8820;54.604;18.226;2023-03-01T05:23:50;3.50;99.90
17405;DHT22;8820;54.604;18.226;2023-03-01T05:26:21;3.50;99.90
17405;DHT22;8820;54.604;18.226;2023-03-01T05:28:55;3.50;99.90
17405;DHT22;8820;54.604;18.226;2023-03-01T05:31:26;3.50;99.90
17405;DHT22;8820;54.604;18.226;2023-03-01T05:33:57;3.50;99.90
17405;DHT22;8820;54.604;18.226;2023-03-01T05:36:26;3.40;99.90
17405;DHT22;8820;54.604;18.226;2023-03-01T05:38:56;3.40;99.90
17405;DHT22;8820;54.604;18.226;2023-03-01T05:41:26;3.40;99.90
17405;DHT22;8820;54.604;18.226;2023-03-01T05:43:55;3.40;99.90
17405;DHT22;8820;54.604;18.226;2023-03-01T05:46:24;3.40;99.90
17405;DHT22;8820;54.604;18.226;2023-03-01T05:48:53;3.40;99.90
17405;DHT22;8820;54.604;18.226;2023-03-01T05:51:22;3.50;99.90
17405;DHT22;8820;54.604;18.226;2023-03-01T05:53:51;3.50;99.90
17405;DHT22;8820;54.604;18.226;2023-03-01T05:56:20;3.40;99.90
17405;DHT22;8820;54.604;18.226;2023-03-01T05:58:51;3.40;99.90
17405;DHT22;8820;54.604;18.226;2023-03-01T06:01:19;3.30;99.90
17405;DHT22;8820;54.604;18.226;2023-03-01T06:03:48;3.20;99.90
17405;DHT22;8820;54.604;18.226;2023-03-01T06:06:17;3.30;99.90
17405;DHT22;8820;54.604;18.226;2023-03-01T06:08:46;3.30;99.90
17405;DHT22;8820;54.604;18.226;2023-03-01T06:11:15;3.40;99.90
17405;DHT22;8820;54.604;18.226;2023-03-01T06:13:44;3.40;99.90
17405;DHT22;8820;54.604;18.226;2023-03-01T06:16:14;3.40;99.90
17405;DHT22;8820;54.604;18.226;2023-03-01T06:18:43;3.40;99.90
17405;DHT22;8820;54.604;18.226;2023-03-01T06:21:12;3.50;99.90
17405;DHT22;8820;54.604;18.226;2023-03-01T06:23:41;3.60;99.90
17405;DHT22;8820;54.604;18.226;2023-03-01T06:26:10;3.60;99.90
17405;DHT22;8820;54.604;18.226;2023-03-01T06:28:39;3.50;99.90
17405;DHT22;8820;54.604;18.226;2023-03-01T06:31:08;3.50;99.90
17405;DHT22;8820;54.604;18.226;2023-03-01T06:33:38;3.40;99.90
17405;DHT22;8820;54.604;18.226;2023-03-01T06:36:08;3.50;99.90
17405;DHT22;8820;54.604;18.226;2023-03-01T06:38:37;3.50;99.90
17405;DHT22;8820;54.604;18.226;2023-03-01T06:41:07;3.60;99.90
17405;DHT22;8820;54.604;18.226;2023-03-01T06:43:36;3.60;99.90
17405;DHT22;8820;54.604;18.226;2023-03-01T06:46:06;3.50;99.90
17405;DHT22;8820;54.604;18.226;2023-03-01T06:48:35;3.60;99.90
17405;DHT22;8820;54.604;18.226;2023-03-01T06:51:06;3.60;99.90
17405;DHT22;8820;54.604;18.226;2023-03-01T06:53:36;3.60;99.90
17405;DHT22;8820;54.604;18.226;2023-03-01T06:56:05;3.60;99.90
17405;DHT22;8820;54.604;18.226;2023-03-01T06:58:34;3.60;99.90
17405;DHT22;8820;54.604;18.226;2023-03-01T07:01:06;3.70;99.90
17405;DHT22;8820;54.604;18.226;2023-03-01T07:03:34;3.70;99.90
17405;DHT22;8820;54.604;18.226;2023-03-01T07:06:03;3.70;99.90
17405;DHT22;8820;54.604;18.226;2023-03-01T07:08:34;3.80;99.90
17405;DHT22;8820;54.604;18.226;2023-03-01T07:11:03;3.80;99.90
17405;DHT22;8820;54.604;18.226;2023-03-01T07:13:33;3.90;99.90
17405;DHT22;8820;54.604;18.226;2023-03-01T07:16:03;4.00;99.90
17405;DHT22;8820;54.604;18.226;2023-03-01T07:18:32;3.90;99.90
17405;DHT22;8820;54.604;18.226;2023-03-01T07:21:04;4.00;99.90
17405;DHT22;8820;54.604;18.226;2023-03-01T07:23:35;4.00;99.90
17405;DHT22;8820;54.604;18.226;2023-03-01T07:26:04;4.10;99.90
17405;DHT22;8820;54.604;18.226;2023-03-01T07:28:33;4.10;99.90
17405;DHT22;8820;54.604;18.226;2023-03-01T07:31:06;4.20;99.90
17405;DHT22;8820;54.604;18.226;2023-03-01T07:33:34;4.10;99.90
17405;DHT22;8820;54.604;18.226;2023-03-01T07:36:04;4.30;99.90
17405;DHT22;8820;54.604;18.226;2023-03-01T07:38:35;4.40;99.90
17405;DHT22;8820;54.604;18.226;2023-03-01T07:41:04;4.40;99.90
17405;DHT22;8820;54.604;18.226;2023-03-01T07:43:33;4.50;99.90
17405;DHT22;8820;54.604;18.226;2023-03-01T07:46:03;4.50;99.90
17405;DHT22;8820;54.604;18.226;2023-03-01T07:48:33;4.60;99.90
17405;DHT22;8820;54.604;18.226;2023-03-01T07:51:04;4.60;99.90
17405;DHT22;8820;54.604;18.226;2023-03-01T07:53:36;4.60;99.90
17405;DHT22;8820;54.604;18.226;2023-03-01T07:56:06;4.50;99.90
17405;DHT22;8820;54.604;18.226;2023-03-01T07:58:36;4.50;99.90
17405;DHT22;8820;54.604;18.226;2023-03-01T08:01:06;4.50;99.90
17405;DHT22;8820;54.604;18.226;2023-03-01T08:03:36;4.50;99.90
17405;DHT22;8820;54.604;18.226;2023-03-01T08:06:07;4.50;99.90
17405;DHT22;8820;54.604;18.226;2023-03-01T08:08:37;4.40;99.90
17405;DHT22;8820;54.604;18.226;2023-03-01T08:11:08;4.60;99.90
17405;DHT22;8820;54.604;18.226;2023-03-01T08:13:38;4.60;99.90
17405;DHT22;8820;54.604;18.226;2023-03-01T08:16:09;4.80;99.90
17405;DHT22;8820;54.604;18.226;2023-03-01T08:18:39;4.70;99.90
17405;DHT22;8820;54.604;18.226;2023-03-01T08:21:10;4.70;99.90
17405;DHT22;8820;54.604;18.226;2023-03-01T08:23:41;4.80;99.90
17405;DHT22;8820;54.604;18.226;2023-03-01T08:26:11;4.80;99.90
17405;DHT22;8820;54.604;18.226;2023-03-01T08:28:41;4.60;99.90
17405;DHT22;8820;54.604;18.226;2023-03-01T08:31:14;4.60;99.90
17405;DHT22;8820;54.604;18.226;2023-03-01T08:33:43;4.60;99.90
17405;DHT22;8820;54.604;18.226;2023-03-01T08:36:18;4.50;99.90
17405;DHT22;8820;54.604;18.226;2023-03-01T08:38:49;4.60;99.90
17405;DHT22;8820;54.604;18.226;2023-03-01T08:41:19;4.60;99.90
17405;DHT22;8820;54.604;18.226;2023-03-01T08:43:48;4.70;99.90
17405;DHT22;8820;54.604;18.226;2023-03-01T08:46:17;4.90;99.90
17405;DHT22;8820;54.604;18.226;2023-03-01T08:48:46;4.90;99.90
17405;DHT22;8820;54.604;18.226;2023-03-01T08:51:17;5.00;99.90
17405;DHT22;8820;54.604;18.226;2023-03-01T08:53:46;5.00;99.90
17405;DHT22;8820;54.604;18.226;2023-03-01T08:56:17;5.00;99.90
17405;DHT22;8820;54.604;18.226;2023-03-01T08:58:47;5.00;99.90
17405;DHT22;8820;54.604;18.226;2023-03-01T09:01:18;5.00;99.90
17405;DHT22;8820;54.604;18.226;2023-03-01T09:03:47;5.10;99.90
17405;DHT22;8820;54.604;18.226;2023-03-01T09:06:17;5.10;99.90
17405;DHT22;8820;54.604;18.226;2023-03-01T09:08:47;4.90;99.90
17405;DHT22;8820;54.604;18.226;2023-03-01T09:11:20;4.90;99.90
17405;DHT22;8820;54.604;18.226;2023-03-01T09:13:49;5.00;99.90
17405;DHT22;8820;54.604;18.226;2023-03-01T09:16:19;4.80;99.90
17405;DHT22;8820;54.604;18.226;2023-03-01T09:18:50;4.90;99.90
17405;DHT22;8820;54.604;18.226;2023-03-01T09:21:21;5.00;99.90
17405;DHT22;8820;54.604;18.226;2023-03-01T09:24:06;5.10;99.90
17405;DHT22;8820;54.604;18.226;2023-03-01T09:26:37;5.10;99.90
17405;DHT22;8820;54.604;18.226;2023-03-01T09:29:06;5.30;99.90
17405;DHT22;8820;54.604;18.226;2023-03-01T09:31:39;5.30;99.90
17405;DHT22;8820;54.604;18.226;2023-03-01T09:34:09;5.20;99.90
17405;DHT22;8820;54.604;18.226;2023-03-01T09:36:38;5.40;99.90
17405;DHT22;8820;54.604;18.226;2023-03-01T09:39:07;5.40;99.90
17405;DHT22;8820;54.604;18.226;2023-03-01T09:41:46;5.50;99.90
17405;DHT22;8820;54.604;18.226;2023-03-01T09:44:27;5.50;99.90
17405;DHT22;8820;54.604;18.226;2023-03-01T09:46:57;5.50;99.90
17405;DHT22;8820;54.604;18.226;2023-03-01T09:49:28;5.50;99.90
17405;DHT22;8820;54.604;18.226;2023-03-01T09:52:01;5.40;99.90
17405;DHT22;8820;54.604;18.226;2023-03-01T09:54:32;5.40;99.90
17405;DHT22;8820;54.604;18.226;2023-03-01T09:57:18;5.70;99.90
17405;DHT22;8820;54.604;18.226;2023-03-01T09:59:56;5.90;99.90
17405;DHT22;8820;54.604;18.226;2023-03-01T10:02:37;5.80;99.90
17405;DHT22;8820;54.604;18.226;2023-03-01T10:08:21;5.80;99.90
17405;DHT22;8820;54.604;18.226;2023-03-01T10:10:53;5.70;99.90
17405;DHT22;8820;54.604;18.226;2023-03-01T10:13:26;5.50;99.90
17405;DHT22;8820;54.604;18.226;2023-03-01T10:16:03;5.50;99.90
17405;DHT22;8820;54.604;18.226;2023-03-01T10:18:34;5.60;99.90
17405;DHT22;8820;54.604;18.226;2023-03-01T10:21:14;5.80;99.90
17405;DHT22;8820;54.604;18.226;2023-03-01T10:23:44;5.70;99.90
17405;DHT22;8820;54.604;18.226;2023-03-01T10:26:25;5.70;99.90
17405;DHT22;8820;54.604;18.226;2023-03-01T10:29:03;5.60;99.90
17405;DHT22;8820;54.604;18.226;2023-03-01T10:31:39;5.70;99.90
17405;DHT22;8820;54.604;18.226;2023-03-01T10:34:14;5.70;99.90
17405;DHT22;8820;54.604;18.226;2023-03-01T10:36:48;5.90;99.90
17405;DHT22;8820;54.604;18.226;2023-03-01T10:39:19;6.20;99.90
17405;DHT22;8820;54.604;18.226;2023-03-01T10:41:59;6.20;99.90
17405;DHT22;8820;54.604;18.226;2023-03-01T10:44:44;6.00;99.90
17405;DHT22;8820;54.604;18.226;2023-03-01T10:47:21;6.00;99.90
17405;DHT22;8820;54.604;18.226;2023-03-01T10:49:59;6.00;99.90
17405;DHT22;8820;54.604;18.226;2023-03-01T10:52:34;6.10;99.90
17405;DHT22;8820;54.604;18.226;2023-03-01T10:55:19;6.30;99.90
17405;DHT22;8820;54.604;18.226;2023-03-01T10:58:07;6.50;99.90
17405;DHT22;8820;54.604;18.226;2023-03-01T11:00:48;6.60;99.90
17405;DHT22;8820;54.604;18.226;2023-03-01T11:03:21;6.60;99.90
17405;DHT22;8820;54.604;18.226;2023-03-01T11:05:57;6.90;99.90
17405;DHT22;8820;54.604;18.226;2023-03-01T11:08:45;7.50;99.90
17405;DHT22;8820;54.604;18.226;2023-03-01T11:11:28;7.90;99.90
17405;DHT22;8820;54.604;18.226;2023-03-01T11:14:00;7.70;99.30
17405;DHT22;8820;54.604;18.226;2023-03-01T11:16:59;7.70;99.60
17405;DHT22;8820;54.604;18.226;2023-03-01T11:19:29;7.40;99.90
17405;DHT22;8820;54.604;18.226;2023-03-01T11:22:02;7.40;99.90
17405;DHT22;8820;54.604;18.226;2023-03-01T11:24:37;7.60;99.90
17405;DHT22;8820;54.604;18.226;2023-03-01T11:27:17;7.70;99.90
17405;DHT22;8820;54.604;18.226;2023-03-01T11:29:52;7.40;99.90
17405;DHT22;8820;54.604;18.226;2023-03-01T11:32:25;7.20;99.90
17405;DHT22;8820;54.604;18.226;2023-03-01T11:34:59;7.30;99.90
17405;DHT22;8820;54.604;18.226;2023-03-01T11:37:35;7.40;99.90
17405;DHT22;8820;54.604;18.226;2023-03-01T11:40:15;8.60;99.90
17405;DHT22;8820;54.604;18.226;2023-03-01T11:42:55;9.80;83.50
17405;DHT22;8820;54.604;18.226;2023-03-01T11:45:39;9.30;86.30
17405;DHT22;8820;54.604;18.226;2023-03-01T11:48:37;9.70;88.00
17405;DHT22;8820;54.604;18.226;2023-03-01T11:51:23;10.40;78.20
17405;DHT22;8820;54.604;18.226;2023-03-01T11:54:09;10.40;76.00
17405;DHT22;8820;54.604;18.226;2023-03-01T11:56:45;11.00;75.80
17405;DHT22;8820;54.604;18.226;2023-03-01T11:59:45;12.30;69.70
17405;DHT22;8820;54.604;18.226;2023-03-01T12:05:45;15.30;56.90
17405;DHT22;8820;54.604;18.226;2023-03-01T12:08:21;15.50;53.30
17405;DHT22;8820;54.604;18.226;2023-03-01T12:11:02;14.70;54.30
17405;DHT22;8820;54.604;18.226;2023-03-01T12:16:46;13.10;57.40
17405;DHT22;8820;54.604;18.226;2023-03-01T12:19:34;12.60;59.00
17405;DHT22;8820;54.604;18.226;2023-03-01T12:22:17;11.40;61.90
17405;DHT22;8820;54.604;18.226;2023-03-01T12:27:55;10.60;69.10
17405;DHT22;8820;54.604;18.226;2023-03-01T12:30:36;10.30;72.00
17405;DHT22;8820;54.604;18.226;2023-03-01T12:33:18;10.30;74.30
17405;DHT22;8820;54.604;18.226;2023-03-01T12:35:58;10.20;74.50
17405;DHT22;8820;54.604;18.226;2023-03-01T12:38:41;10.20;74.70
17405;DHT22;8820;54.604;18.226;2023-03-01T12:41:34;10.30;75.00
17405;DHT22;8820;54.604;18.226;2023-03-01T12:44:15;10.70;73.10
17405;DHT22;8820;54.604;18.226;2023-03-01T12:47:02;11.60;70.20
17405;DHT22;8820;54.604;18.226;2023-03-01T12:49:39;15.30;58.50
17405;DHT22;8820;54.604;18.226;2023-03-01T12:52:14;16.30;51.20
17405;DHT22;8820;54.604;18.226;2023-03-01T12:54:46;18.40;49.20
17405;DHT22;8820;54.604;18.226;2023-03-01T12:57:20;19.70;45.70
17405;DHT22;8820;54.604;18.226;2023-03-01T13:00:02;20.40;44.40
17405;DHT22;8820;54.604;18.226;2023-03-01T13:02:38;21.40;41.70
17405;DHT22;8820;54.604;18.226;2023-03-01T13:05:24;21.50;40.60
17405;DHT22;8820;54.604;18.226;2023-03-01T13:08:00;20.90;42.30
17405;DHT22;8820;54.604;18.226;2023-03-01T13:10:40;20.10;43.40
17405;DHT22;8820;54.604;18.226;2023-03-01T13:13:18;20.00;42.40
17405;DHT22;8820;54.604;18.226;2023-03-01T13:15:48;18.80;45.20
17405;DHT22;8820;54.604;18.226;2023-03-01T13:18:30;18.30;45.40
17405;DHT22;8820;54.604;18.226;2023-03-01T13:21:03;18.10;45.70
17405;DHT22;8820;54.604;18.226;2023-03-01T13:23:35;16.60;47.20
17405;DHT22;8820;54.604;18.226;2023-03-01T13:26:12;16.50;48.90
17405;DHT22;8820;54.604;18.226;2023-03-01T13:28:50;16.90;48.60
17405;DHT22;8820;54.604;18.226;2023-03-01T13:34:42;20.50;43.70
17405;DHT22;8820;54.604;18.226;2023-03-01T13:43:31;21.10;40.50
17405;DHT22;8820;54.604;18.226;2023-03-01T13:46:03;18.50;43.90
17405;DHT22;8820;54.604;18.226;2023-03-01T13:48:36;16.70;47.30
17405;DHT22;8820;54.604;18.226;2023-03-01T13:51:08;17.20;47.10
17405;DHT22;8820;54.604;18.226;2023-03-01T13:53:43;17.20;47.90
17405;DHT22;8820;54.604;18.226;2023-03-01T13:56:15;16.50;48.10
17405;DHT22;8820;54.604;18.226;2023-03-01T13:58:50;14.70;50.80
17405;DHT22;8820;54.604;18.226;2023-03-01T14:01:26;13.20;54.00
17405;DHT22;8820;54.604;18.226;2023-03-01T14:03:56;12.70;56.20
17405;DHT22;8820;54.604;18.226;2023-03-01T14:06:27;12.20;58.40
17405;DHT22;8820;54.604;18.226;2023-03-01T14:09:08;12.00;59.40
17405;DHT22;8820;54.604;18.226;2023-03-01T14:11:54;11.60;60.80
17405;DHT22;8820;54.604;18.226;2023-03-01T14:17:44;11.30;65.50
17405;DHT22;8820;54.604;18.226;2023-03-01T14:20:19;11.10;66.60
17405;DHT22;8820;54.604;18.226;2023-03-01T14:22:49;10.90;68.30
17405;DHT22;8820;54.604;18.226;2023-03-01T14:25:29;10.80;70.30
17405;DHT22;8820;54.604;18.226;2023-03-01T14:28:04;10.70;70.60
17405;DHT22;8820;54.604;18.226;2023-03-01T14:30:46;10.50;69.50
17405;DHT22;8820;54.604;18.226;2023-03-01T14:33:22;10.30;69.60
17405;DHT22;8820;54.604;18.226;2023-03-01T14:35:58;10.00;70.20
17405;DHT22;8820;54.604;18.226;2023-03-01T14:38:36;9.80;70.90
17405;DHT22;8820;54.604;18.226;2023-03-01T14:41:09;9.70;70.60
17405;DHT22;8820;54.604;18.226;2023-03-01T14:43:40;9.80;70.80
17405;DHT22;8820;54.604;18.226;2023-03-01T14:46:19;9.80;70.50
17405;DHT22;8820;54.604;18.226;2023-03-01T14:48:50;9.70;69.70
17405;DHT22;8820;54.604;18.226;2023-03-01T14:51:20;9.50;70.20
17405;DHT22;8820;54.604;18.226;2023-03-01T14:53:49;9.40;70.50
17405;DHT22;8820;54.604;18.226;2023-03-01T14:56:19;9.30;70.90
17405;DHT22;8820;54.604;18.226;2023-03-01T14:58:51;9.40;71.00
17405;DHT22;8820;54.604;18.226;2023-03-01T15:01:22;9.30;71.50
17405;DHT22;8820;54.604;18.226;2023-03-01T15:03:51;9.20;72.40
17405;DHT22;8820;54.604;18.226;2023-03-01T15:06:22;9.00;76.50
17405;DHT22;8820;54.604;18.226;2023-03-01T15:08:53;9.00;78.00
17405;DHT22;8820;54.604;18.226;2023-03-01T15:11:28;9.00;80.10
17405;DHT22;8820;54.604;18.226;2023-03-01T15:13:58;8.70;79.00
17405;DHT22;8820;54.604;18.226;2023-03-01T15:16:30;8.40;83.00
17405;DHT22;8820;54.604;18.226;2023-03-01T15:19:02;8.40;86.10
17405;DHT22;8820;54.604;18.226;2023-03-01T15:21:33;8.30;87.40
17405;DHT22;8820;54.604;18.226;2023-03-01T15:24:06;8.20;89.60
17405;DHT22;8820;54.604;18.226;2023-03-01T15:26:41;8.10;91.60
17405;DHT22;8820;54.604;18.226;2023-03-01T15:29:16;8.00;93.30
17405;DHT22;8820;54.604;18.226;2023-03-01T15:31:56;7.70;94.40
17405;DHT22;8820;54.604;18.226;2023-03-01T15:34:27;7.80;93.70
17405;DHT22;8820;54.604;18.226;2023-03-01T15:36:58;7.90;93.30
17405;DHT22;8820;54.604;18.226;2023-03-01T15:39:37;7.90;94.00
17405;DHT22;8820;54.604;18.226;2023-03-01T15:42:08;7.80;95.40
17405;DHT22;8820;54.604;18.226;2023-03-01T15:44:40;7.60;97.10
17405;DHT22;8820;54.604;18.226;2023-03-01T15:47:28;7.40;98.50
17405;DHT22;8820;54.604;18.226;2023-03-01T15:49:58;7.40;98.80
17405;DHT22;8820;54.604;18.226;2023-03-01T15:52:31;7.30;99.60
17405;DHT22;8820;54.604;18.226;2023-03-01T15:55:15;7.20;99.90
17405;DHT22;8820;54.604;18.226;2023-03-01T15:57:45;7.20;99.90
17405;DHT22;8820;54.604;18.226;2023-03-01T16:00:22;7.10;99.90
17405;DHT22;8820;54.604;18.226;2023-03-01T16:02:53;7.10;99.90
17405;DHT22;8820;54.604;18.226;2023-03-01T16:05:24;7.10;99.90
17405;DHT22;8820;54.604;18.226;2023-03-01T16:07:54;7.00;99.90
17405;DHT22;8820;54.604;18.226;2023-03-01T16:10:23;6.90;99.90
17405;DHT22;8820;54.604;18.226;2023-03-01T16:12:52;6.80;99.90
17405;DHT22;8820;54.604;18.226;2023-03-01T16:15:24;6.80;99.90
17405;DHT22;8820;54.604;18.226;2023-03-01T16:17:55;6.80;99.90
17405;DHT22;8820;54.604;18.226;2023-03-01T16:20:25;6.70;99.90
17405;DHT22;8820;54.604;18.226;2023-03-01T16:22:58;6.70;99.90
17405;DHT22;8820;54.604;18.226;2023-03-01T16:25:28;6.60;99.90
17405;DHT22;8820;54.604;18.226;2023-03-01T16:27:57;6.50;99.90
17405;DHT22;8820;54.604;18.226;2023-03-01T16:30:28;6.50;99.90
17405;DHT22;8820;54.604;18.226;2023-03-01T16:32:58;6.40;99.90
17405;DHT22;8820;54.604;18.226;2023-03-01T16:35:27;6.30;99.90
17405;DHT22;8820;54.604;18.226;2023-03-01T16:37:59;6.40;99.90
17405;DHT22;8820;54.604;18.226;2023-03-01T16:40:29;6.40;99.90
17405;DHT22;8820;54.604;18.226;2023-03-01T16:42:58;6.50;99.90
17405;DHT22;8820;54.604;18.226;2023-03-01T16:45:33;6.50;99.90